sensor_id;sensor_type;location;lat;lon;timestamp;P1;durP1;ratioP1;P2;durP2;ratioP2
12467;SDS011;57850;52.922;6.256;2024-01-30T00:00:29;21.73;;;15.18;;
12467;SDS011;57850;52.922;6.256;2024-01-30T00:02:56;21.48;;;15.10;;
12467;SDS011;57850;52.922;6.256;2024-01-30T00:05:23;21.90;;;15.50;;
12467;SDS011;57850;52.922;6.256;2024-01-30T00:07:51;22.85;;;16.38;;
12467;SDS011;57850;52.922;6.256;2024-01-30T00:10:17;24.13;;;15.98;;
12467;SDS011;57850;52.922;6.256;2024-01-30T00:12:44;24.73;;;15.80;;
12467;SDS011;57850;52.922;6.256;2024-01-30T00:15:10;24.90;;;15.60;;
12467;SDS011;57850;52.922;6.256;2024-01-30T00:17:37;21.92;;;15.10;;
12467;SDS011;57850;52.922;6.256;2024-01-30T00:20:04;22.88;;;15.73;;
12467;SDS011;57850;52.922;6.256;2024-01-30T00:22:32;24.83;;;14.45;;
12467;SDS011;57850;52.922;6.256;2024-01-30T00:25:00;23.23;;;16.65;;
12467;SDS011;57850;52.922;6.256;2024-01-30T00:27:26;21.95;;;14.73;;
12467;SDS011;57850;52.922;6.256;2024-01-30T00:29:53;19.27;;;14.55;;
12467;SDS011;57850;52.922;6.256;2024-01-30T00:32:20;20.50;;;15.10;;
12467;SDS011;57850;52.922;6.256;2024-01-30T00:34:47;24.00;;;15.27;;
12467;SDS011;57850;52.922;6.256;2024-01-30T00:37:14;21.58;;;14.93;;
12467;SDS011;57850;52.922;6.256;2024-01-30T00:39:41;22.48;;;16.60;;
12467;SDS011;57850;52.922;6.256;2024-01-30T00:42:09;25.60;;;15.48;;
12467;SDS011;57850;52.922;6.256;2024-01-30T00:44:35;27.38;;;16.17;;
12467;SDS011;57850;52.922;6.256;2024-01-30T00:47:03;21.17;;;16.05;;
12467;SDS011;57850;52.922;6.256;2024-01-30T00:49:30;23.08;;;15.60;;
12467;SDS011;57850;52.922;6.256;2024-01-30T00:51:56;22.90;;;16.48;;
12467;SDS011;57850;52.922;6.256;2024-01-30T00:54:23;26.13;;;17.40;;
12467;SDS011;57850;52.922;6.256;2024-01-30T00:56:49;23.90;;;15.68;;
12467;SDS011;57850;52.922;6.256;2024-01-30T00:59:17;23.92;;;16.27;;
12467;SDS011;57850;52.922;6.256;2024-01-30T01:01:44;23.90;;;17.35;;
12467;SDS011;57850;52.922;6.256;2024-01-30T01:04:10;22.60;;;14.77;;
12467;SDS011;57850;52.922;6.256;2024-01-30T01:06:37;24.67;;;16.45;;
12467;SDS011;57850;52.922;6.256;2024-01-30T01:09:03;25.27;;;15.77;;
12467;SDS011;57850;52.922;6.256;2024-01-30T01:11:30;22.05;;;15.50;;
12467;SDS011;57850;52.922;6.256;2024-01-30T01:13:56;24.70;;;15.90;;
12467;SDS011;57850;52.922;6.256;2024-01-30T01:16:24;24.52;;;15.90;;
12467;SDS011;57850;52.922;6.256;2024-01-30T01:18:51;22.38;;;15.85;;
12467;SDS011;57850;52.922;6.256;2024-01-30T01:21:17;22.60;;;15.57;;
12467;SDS011;57850;52.922;6.256;2024-01-30T01:23:44;22.55;;;16.42;;
12467;SDS011;57850;52.922;6.256;2024-01-30T01:26:10;21.02;;;15.40;;
12467;SDS011;57850;52.922;6.256;2024-01-30T01:28:37;22.83;;;16.67;;
12467;SDS011;57850;52.922;6.256;2024-01-30T01:31:05;22.65;;;15.77;;
12467;SDS011;57850;52.922;6.256;2024-01-30T01:33:33;20.42;;;15.27;;
12467;SDS011;57850;52.922;6.256;2024-01-30T01:36:03;22.25;;;15.82;;
12467;SDS011;57850;52.922;6.256;2024-01-30T01:38:30;23.13;;;15.38;;
12467;SDS011;57850;52.922;6.256;2024-01-30T01:40:59;21.75;;;15.15;;
12467;SDS011;57850;52.922;6.256;2024-01-30T01:43:25;25.70;;;16.20;;
12467;SDS011;57850;52.922;6.256;2024-01-30T01:45:52;23.50;;;15.02;;
12467;SDS011;57850;52.922;6.256;2024-01-30T01:48:18;23.25;;;16.05;;
12467;SDS011;57850;52.922;6.256;2024-01-30T01:50:46;22.77;;;15.07;;
12467;SDS011;57850;52.922;6.256;2024-01-30T01:53:13;22.77;;;16.20;;
12467;SDS011;57850;52.922;6.256;2024-01-30T01:55:41;26.52;;;16.38;;
12467;SDS011;57850;52.922;6.256;2024-01-30T01:58:08;24.42;;;16.17;;
12467;SDS011;57850;52.922;6.256;2024-01-30T02:00:37;23.83;;;16.02;;
12467;SDS011;57850;52.922;6.256;2024-01-30T02:03:06;21.17;;;15.70;;
12467;SDS011;57850;52.922;6.256;2024-01-30T02:05:34;23.27;;;15.93;;
12467;SDS011;57850;52.922;6.256;2024-01-30T02:08:02;24.58;;;17.02;;
12467;SDS011;57850;52.922;6.256;2024-01-30T02:10:29;23.88;;;15.18;;
12467;SDS011;57850;52.922;6.256;2024-01-30T02:12:56;22.58;;;15.07;;
12467;SDS011;57850;52.922;6.256;2024-01-30T02:15:22;21.35;;;15.27;;
12467;SDS011;57850;52.922;6.256;2024-01-30T02:17:49;25.30;;;15.98;;
12467;SDS011;57850;52.922;6.256;2024-01-30T02:20:15;20.63;;;14.00;;
12467;SDS011;57850;52.922;6.256;2024-01-30T02:22:43;22.83;;;15.52;;
12467;SDS011;57850;52.922;6.256;2024-01-30T02:25:10;24.17;;;15.75;;
12467;SDS011;57850;52.922;6.256;2024-01-30T02:27:36;24.17;;;16.52;;
12467;SDS011;57850;52.922;6.256;2024-01-30T02:30:03;21.55;;;15.98;;
12467;SDS011;57850;52.922;6.256;2024-01-30T02:32:30;23.20;;;16.40;;
12467;SDS011;57850;52.922;6.256;2024-01-30T02:34:56;21.70;;;16.02;;
12467;SDS011;57850;52.922;6.256;2024-01-30T02:37:22;23.88;;;16.25;;
12467;SDS011;57850;52.922;6.256;2024-01-30T02:39:50;20.52;;;15.20;;
12467;SDS011;57850;52.922;6.256;2024-01-30T02:42:17;25.80;;;15.88;;
12467;SDS011;57850;52.922;6.256;2024-01-30T02:44:43;24.95;;;16.70;;
12467;SDS011;57850;52.922;6.256;2024-01-30T02:47:12;23.38;;;16.77;;
12467;SDS011;57850;52.922;6.256;2024-01-30T02:49:38;21.40;;;15.85;;
12467;SDS011;57850;52.922;6.256;2024-01-30T02:52:05;25.23;;;16.10;;
12467;SDS011;57850;52.922;6.256;2024-01-30T02:54:31;21.85;;;16.00;;
12467;SDS011;57850;52.922;6.256;2024-01-30T02:56:59;25.25;;;16.48;;
12467;SDS011;57850;52.922;6.256;2024-01-30T02:59:25;20.67;;;15.15;;
12467;SDS011;57850;52.922;6.256;2024-01-30T03:01:52;23.58;;;16.50;;
12467;SDS011;57850;52.922;6.256;2024-01-30T03:04:18;19.98;;;15.13;;
12467;SDS011;57850;52.922;6.256;2024-01-30T03:06:45;23.75;;;16.42;;
12467;SDS011;57850;52.922;6.256;2024-01-30T03:09:12;24.25;;;16.25;;
12467;SDS011;57850;52.922;6.256;2024-01-30T03:11:38;25.38;;;16.42;;
12467;SDS011;57850;52.922;6.256;2024-01-30T03:14:06;22.98;;;16.88;;
12467;SDS011;57850;52.922;6.256;2024-01-30T03:16:33;21.58;;;15.02;;
12467;SDS011;57850;52.922;6.256;2024-01-30T03:18:59;24.15;;;15.55;;
12467;SDS011;57850;52.922;6.256;2024-01-30T03:21:27;21.63;;;15.32;;
12467;SDS011;57850;52.922;6.256;2024-01-30T03:23:53;21.90;;;15.20;;
12467;SDS011;57850;52.922;6.256;2024-01-30T03:26:20;21.13;;;15.38;;
12467;SDS011;57850;52.922;6.256;2024-01-30T03:28:46;20.48;;;15.60;;
12467;SDS011;57850;52.922;6.256;2024-01-30T03:31:15;20.20;;;14.82;;
12467;SDS011;57850;52.922;6.256;2024-01-30T03:33:42;23.13;;;14.65;;
12467;SDS011;57850;52.922;6.256;2024-01-30T03:36:08;22.38;;;14.43;;
12467;SDS011;57850;52.922;6.256;2024-01-30T03:38:35;21.20;;;15.73;;
12467;SDS011;57850;52.922;6.256;2024-01-30T03:41:01;19.92;;;15.05;;
12467;SDS011;57850;52.922;6.256;2024-01-30T03:43:28;19.10;;;14.52;;
12467;SDS011;57850;52.922;6.256;2024-01-30T03:45:54;19.92;;;14.50;;
12467;SDS011;57850;52.922;6.256;2024-01-30T03:48:22;21.08;;;15.05;;
12467;SDS011;57850;52.922;6.256;2024-01-30T03:50:48;20.20;;;14.68;;
12467;SDS011;57850;52.922;6.256;2024-01-30T03:53:15;20.48;;;14.05;;
12467;SDS011;57850;52.922;6.256;2024-01-30T03:55:41;19.10;;;14.15;;
12467;SDS011;57850;52.922;6.256;2024-01-30T03:58:08;19.15;;;14.60;;
12467;SDS011;57850;52.922;6.256;2024-01-30T04:00:34;20.40;;;14.20;;
12467;SDS011;57850;52.922;6.256;2024-01-30T04:03:00;19.48;;;13.98;;
12467;SDS011;57850;52.922;6.256;2024-01-30T04:05:28;22.67;;;13.57;;
12467;SDS011;57850;52.922;6.256;2024-01-30T04:07:54;23.55;;;14.75;;
12467;SDS011;57850;52.922;6.256;2024-01-30T04:10:21;21.92;;;13.85;;
12467;SDS011;57850;52.922;6.256;2024-01-30T04:12:47;21.90;;;15.18;;
12467;SDS011;57850;52.922;6.256;2024-01-30T04:15:13;20.25;;;14.05;;
12467;SDS011;57850;52.922;6.256;2024-01-30T04:17:40;19.30;;;13.93;;
12467;SDS011;57850;52.922;6.256;2024-01-30T04:20:07;21.75;;;13.32;;
12467;SDS011;57850;52.922;6.256;2024-01-30T04:22:35;19.83;;;14.05;;
12467;SDS011;57850;52.922;6.256;2024-01-30T04:25:01;21.20;;;14.40;;
12467;SDS011;57850;52.922;6.256;2024-01-30T04:27:28;20.60;;;14.27;;
12467;SDS011;57850;52.922;6.256;2024-01-30T04:29:54;21.33;;;13.60;;
12467;SDS011;57850;52.922;6.256;2024-01-30T04:32:20;18.00;;;13.45;;
12467;SDS011;57850;52.922;6.256;2024-01-30T04:34:47;19.52;;;13.68;;
12467;SDS011;57850;52.922;6.256;2024-01-30T04:37:13;24.40;;;14.52;;
12467;SDS011;57850;52.922;6.256;2024-01-30T04:39:41;18.58;;;13.05;;
12467;SDS011;57850;52.922;6.256;2024-01-30T04:42:08;22.83;;;14.00;;
12467;SDS011;57850;52.922;6.256;2024-01-30T04:44:34;17.83;;;13.30;;
12467;SDS011;57850;52.922;6.256;2024-01-30T04:47:01;17.85;;;12.95;;
12467;SDS011;57850;52.922;6.256;2024-01-30T04:49:27;20.10;;;13.25;;
12467;SDS011;57850;52.922;6.256;2024-01-30T04:51:53;18.17;;;13.70;;
12467;SDS011;57850;52.922;6.256;2024-01-30T04:54:19;22.13;;;13.02;;
12467;SDS011;57850;52.922;6.256;2024-01-30T04:56:47;19.95;;;13.45;;
12467;SDS011;57850;52.922;6.256;2024-01-30T04:59:13;20.52;;;13.10;;
12467;SDS011;57850;52.922;6.256;2024-01-30T05:01:40;21.00;;;13.88;;
12467;SDS011;57850;52.922;6.256;2024-01-30T05:04:07;20.50;;;12.40;;
12467;SDS011;57850;52.922;6.256;2024-01-30T05:06:33;19.48;;;14.45;;
12467;SDS011;57850;52.922;6.256;2024-01-30T05:09:00;16.40;;;12.18;;
12467;SDS011;57850;52.922;6.256;2024-01-30T05:11:26;16.77;;;12.50;;
12467;SDS011;57850;52.922;6.256;2024-01-30T05:13:55;17.20;;;13.18;;
12467;SDS011;57850;52.922;6.256;2024-01-30T05:16:21;15.65;;;12.57;;
12467;SDS011;57850;52.922;6.256;2024-01-30T05:18:47;19.88;;;13.13;;
12467;SDS011;57850;52.922;6.256;2024-01-30T05:21:14;18.23;;;13.57;;
12467;SDS011;57850;52.922;6.256;2024-01-30T05:23:40;18.17;;;13.15;;
12467;SDS011;57850;52.922;6.256;2024-01-30T05:26:07;17.83;;;12.38;;
12467;SDS011;57850;52.922;6.256;2024-01-30T05:28:33;20.10;;;12.75;;
12467;SDS011;57850;52.922;6.256;2024-01-30T05:31:01;17.00;;;12.15;;
12467;SDS011;57850;52.922;6.256;2024-01-30T05:33:27;17.08;;;12.68;;
12467;SDS011;57850;52.922;6.256;2024-01-30T05:35:54;17.70;;;12.95;;
12467;SDS011;57850;52.922;6.256;2024-01-30T05:38:20;17.02;;;12.15;;
12467;SDS011;57850;52.922;6.256;2024-01-30T05:40:47;16.80;;;12.25;;
12467;SDS011;57850;52.922;6.256;2024-01-30T05:43:13;17.08;;;12.35;;
12467;SDS011;57850;52.922;6.256;2024-01-30T05:45:40;18.77;;;12.32;;
12467;SDS011;57850;52.922;6.256;2024-01-30T05:48:08;13.90;;;11.60;;
12467;SDS011;57850;52.922;6.256;2024-01-30T05:50:35;15.77;;;11.98;;
12467;SDS011;57850;52.922;6.256;2024-01-30T05:53:01;20.65;;;12.18;;
12467;SDS011;57850;52.922;6.256;2024-01-30T05:55:28;16.25;;;11.50;;
12467;SDS011;57850;52.922;6.256;2024-01-30T05:57:54;16.50;;;12.60;;
12467;SDS011;57850;52.922;6.256;2024-01-30T06:00:20;16.17;;;11.35;;
12467;SDS011;57850;52.922;6.256;2024-01-30T06:02:47;16.77;;;12.07;;
12467;SDS011;57850;52.922;6.256;2024-01-30T06:05:15;18.60;;;11.80;;
12467;SDS011;57850;52.922;6.256;2024-01-30T06:07:41;16.45;;;11.45;;
12467;SDS011;57850;52.922;6.256;2024-01-30T06:10:08;16.13;;;12.50;;
12467;SDS011;57850;52.922;6.256;2024-01-30T06:12:35;14.68;;;10.95;;
12467;SDS011;57850;52.922;6.256;2024-01-30T06:15:01;14.27;;;10.80;;
12467;SDS011;57850;52.922;6.256;2024-01-30T06:17:28;18.15;;;10.88;;
12467;SDS011;57850;52.922;6.256;2024-01-30T06:19:54;17.77;;;11.52;;
12467;SDS011;57850;52.922;6.256;2024-01-30T06:22:22;17.33;;;11.93;;
12467;SDS011;57850;52.922;6.256;2024-01-30T06:24:48;14.63;;;11.18;;
12467;SDS011;57850;52.922;6.256;2024-01-30T06:27:15;15.90;;;11.60;;
12467;SDS011;57850;52.922;6.256;2024-01-30T06:29:42;16.48;;;10.98;;
12467;SDS011;57850;52.922;6.256;2024-01-30T06:32:09;16.83;;;10.68;;
12467;SDS011;57850;52.922;6.256;2024-01-30T06:34:35;12.85;;;9.80;;
12467;SDS011;57850;52.922;6.256;2024-01-30T06:37:03;16.38;;;11.15;;
12467;SDS011;57850;52.922;6.256;2024-01-30T06:39:31;17.92;;;11.45;;
12467;SDS011;57850;52.922;6.256;2024-01-30T06:41:58;15.95;;;10.57;;
12467;SDS011;57850;52.922;6.256;2024-01-30T06:44:24;19.13;;;11.13;;
12467;SDS011;57850;52.922;6.256;2024-01-30T06:46:50;17.42;;;11.07;;
12467;SDS011;57850;52.922;6.256;2024-01-30T06:49:17;16.58;;;10.85;;
12467;SDS011;57850;52.922;6.256;2024-01-30T06:51:44;14.60;;;10.23;;
12467;SDS011;57850;52.922;6.256;2024-01-30T06:54:10;15.82;;;10.57;;
12467;SDS011;57850;52.922;6.256;2024-01-30T06:56:38;15.43;;;10.80;;
12467;SDS011;57850;52.922;6.256;2024-01-30T06:59:04;17.75;;;11.05;;
12467;SDS011;57850;52.922;6.256;2024-01-30T07:01:31;26.85;;;15.10;;
12467;SDS011;57850;52.922;6.256;2024-01-30T07:03:58;13.90;;;10.10;;
12467;SDS011;57850;52.922;6.256;2024-01-30T07:06:24;14.10;;;10.57;;
12467;SDS011;57850;52.922;6.256;2024-01-30T07:08:51;13.38;;;10.13;;
12467;SDS011;57850;52.922;6.256;2024-01-30T07:11:18;18.90;;;10.23;;
12467;SDS011;57850;52.922;6.256;2024-01-30T07:13:46;14.80;;;10.05;;
12467;SDS011;57850;52.922;6.256;2024-01-30T07:16:13;14.88;;;9.80;;
12467;SDS011;57850;52.922;6.256;2024-01-30T07:18:39;13.27;;;10.30;;
12467;SDS011;57850;52.922;6.256;2024-01-30T07:21:06;14.80;;;9.43;;
12467;SDS011;57850;52.922;6.256;2024-01-30T07:23:32;15.82;;;10.52;;
12467;SDS011;57850;52.922;6.256;2024-01-30T07:25:59;17.95;;;10.90;;
12467;SDS011;57850;52.922;6.256;2024-01-30T07:28:26;13.90;;;9.45;;
12467;SDS011;57850;52.922;6.256;2024-01-30T07:30:54;15.32;;;10.45;;
12467;SDS011;57850;52.922;6.256;2024-01-30T07:33:20;12.63;;;9.65;;
12467;SDS011;57850;52.922;6.256;2024-01-30T07:35:47;15.48;;;10.07;;
12467;SDS011;57850;52.922;6.256;2024-01-30T07:38:13;15.07;;;9.70;;
12467;SDS011;57850;52.922;6.256;2024-01-30T07:40:39;14.07;;;9.32;;
12467;SDS011;57850;52.922;6.256;2024-01-30T07:43:06;13.80;;;9.60;;
12467;SDS011;57850;52.922;6.256;2024-01-30T07:45:33;12.88;;;8.93;;
12467;SDS011;57850;52.922;6.256;2024-01-30T07:48:03;13.77;;;9.10;;
12467;SDS011;57850;52.922;6.256;2024-01-30T07:50:30;15.15;;;9.10;;
12467;SDS011;57850;52.922;6.256;2024-01-30T07:52:56;11.98;;;9.73;;
12467;SDS011;57850;52.922;6.256;2024-01-30T07:55:23;14.55;;;9.73;;
12467;SDS011;57850;52.922;6.256;2024-01-30T07:57:52;15.77;;;9.38;;
12467;SDS011;57850;52.922;6.256;2024-01-30T08:00:19;13.32;;;9.30;;
12467;SDS011;57850;52.922;6.256;2024-01-30T08:02:46;14.77;;;9.82;;
12467;SDS011;57850;52.922;6.256;2024-01-30T08:05:14;13.15;;;9.38;;
12467;SDS011;57850;52.922;6.256;2024-01-30T08:07:40;15.88;;;9.10;;
12467;SDS011;57850;52.922;6.256;2024-01-30T08:10:07;15.23;;;9.38;;
12467;SDS011;57850;52.922;6.256;2024-01-30T08:12:34;12.90;;;9.13;;
12467;SDS011;57850;52.922;6.256;2024-01-30T08:15:00;13.25;;;9.07;;
12467;SDS011;57850;52.922;6.256;2024-01-30T08:17:26;14.73;;;9.38;;
12467;SDS011;57850;52.922;6.256;2024-01-30T08:19:53;12.85;;;8.80;;
12467;SDS011;57850;52.922;6.256;2024-01-30T08:22:21;13.57;;;9.43;;
12467;SDS011;57850;52.922;6.256;2024-01-30T08:24:47;12.30;;;8.70;;
12467;SDS011;57850;52.922;6.256;2024-01-30T08:27:14;12.27;;;9.25;;
12467;SDS011;57850;52.922;6.256;2024-01-30T08:29:40;15.68;;;9.38;;
12467;SDS011;57850;52.922;6.256;2024-01-30T08:32:06;14.27;;;9.50;;
12467;SDS011;57850;52.922;6.256;2024-01-30T08:34:33;13.38;;;8.18;;
12467;SDS011;57850;52.922;6.256;2024-01-30T08:36:59;11.45;;;8.63;;
12467;SDS011;57850;52.922;6.256;2024-01-30T08:39:27;14.32;;;8.68;;
12467;SDS011;57850;52.922;6.256;2024-01-30T08:41:53;13.65;;;9.05;;
12467;SDS011;57850;52.922;6.256;2024-01-30T08:44:20;13.27;;;8.32;;
12467;SDS011;57850;52.922;6.256;2024-01-30T08:46:46;14.25;;;8.70;;
12467;SDS011;57850;52.922;6.256;2024-01-30T08:49:16;13.65;;;9.35;;
12467;SDS011;57850;52.922;6.256;2024-01-30T08:51:43;14.10;;;9.15;;
12467;SDS011;57850;52.922;6.256;2024-01-30T08:54:09;12.13;;;8.82;;
12467;SDS011;57850;52.922;6.256;2024-01-30T08:56:37;16.25;;;9.82;;
12467;SDS011;57850;52.922;6.256;2024-01-30T08:59:03;14.20;;;8.75;;
12467;SDS011;57850;52.922;6.256;2024-01-30T09:01:30;11.75;;;7.78;;
12467;SDS011;57850;52.922;6.256;2024-01-30T09:03:56;12.85;;;8.95;;
12467;SDS011;57850;52.922;6.256;2024-01-30T09:06:23;15.38;;;8.63;;
12467;SDS011;57850;52.922;6.256;2024-01-30T09:08:51;12.25;;;8.52;;
12467;SDS011;57850;52.922;6.256;2024-01-30T09:11:18;13.35;;;8.98;;
12467;SDS011;57850;52.922;6.256;2024-01-30T09:13:45;13.20;;;8.20;;
12467;SDS011;57850;52.922;6.256;2024-01-30T09:16:12;12.27;;;8.52;;
12467;SDS011;57850;52.922;6.256;2024-01-30T09:18:38;14.80;;;8.77;;
12467;SDS011;57850;52.922;6.256;2024-01-30T09:21:05;15.13;;;9.10;;
12467;SDS011;57850;52.922;6.256;2024-01-30T09:23:32;12.70;;;9.05;;
12467;SDS011;57850;52.922;6.256;2024-01-30T09:25:58;11.52;;;8.45;;
12467;SDS011;57850;52.922;6.256;2024-01-30T09:28:25;14.52;;;8.65;;
12467;SDS011;57850;52.922;6.256;2024-01-30T09:30:53;15.45;;;9.15;;
12467;SDS011;57850;52.922;6.256;2024-01-30T09:33:19;11.70;;;8.65;;
12467;SDS011;57850;52.922;6.256;2024-01-30T09:35:46;13.57;;;9.07;;
12467;SDS011;57850;52.922;6.256;2024-01-30T09:38:12;16.20;;;8.68;;
12467;SDS011;57850;52.922;6.256;2024-01-30T09:40:40;11.35;;;8.95;;
12467;SDS011;57850;52.922;6.256;2024-01-30T09:43:07;13.52;;;8.88;;
12467;SDS011;57850;52.922;6.256;2024-01-30T09:45:33;13.77;;;9.07;;
12467;SDS011;57850;52.922;6.256;2024-01-30T09:48:02;15.15;;;8.90;;
12467;SDS011;57850;52.922;6.256;2024-01-30T09:50:29;12.63;;;8.30;;
12467;SDS011;57850;52.922;6.256;2024-01-30T09:52:56;16.95;;;9.35;;
12467;SDS011;57850;52.922;6.256;2024-01-30T09:55:24;13.52;;;8.52;;
12467;SDS011;57850;52.922;6.256;2024-01-30T09:57:50;12.48;;;8.70;;
12467;SDS011;57850;52.922;6.256;2024-01-30T10:00:17;15.50;;;9.65;;
12467;SDS011;57850;52.922;6.256;2024-01-30T10:02:44;12.25;;;8.88;;
12467;SDS011;57850;52.922;6.256;2024-01-30T10:05:13;11.38;;;8.35;;
12467;SDS011;57850;52.922;6.256;2024-01-30T10:07:49;15.15;;;8.98;;
12467;SDS011;57850;52.922;6.256;2024-01-30T10:10:16;16.13;;;9.57;;
12467;SDS011;57850;52.922;6.256;2024-01-30T10:12:42;13.18;;;9.48;;
12467;SDS011;57850;52.922;6.256;2024-01-30T10:15:08;17.02;;;9.45;;
12467;SDS011;57850;52.922;6.256;2024-01-30T10:17:37;14.90;;;9.38;;
12467;SDS011;57850;52.922;6.256;2024-01-30T10:20:04;16.30;;;9.68;;
12467;SDS011;57850;52.922;6.256;2024-01-30T10:22:32;19.20;;;10.43;;
12467;SDS011;57850;52.922;6.256;2024-01-30T10:24:59;16.25;;;9.52;;
12467;SDS011;57850;52.922;6.256;2024-01-30T10:27:26;18.25;;;9.85;;
12467;SDS011;57850;52.922;6.256;2024-01-30T10:29:54;17.80;;;12.03;;
12467;SDS011;57850;52.922;6.256;2024-01-30T10:32:21;16.85;;;10.73;;
12467;SDS011;57850;52.922;6.256;2024-01-30T10:34:47;18.23;;;10.00;;
12467;SDS011;57850;52.922;6.256;2024-01-30T10:37:14;15.52;;;10.02;;
12467;SDS011;57850;52.922;6.256;2024-01-30T10:39:43;19.17;;;10.85;;
12467;SDS011;57850;52.922;6.256;2024-01-30T10:42:11;15.20;;;10.18;;
12467;SDS011;57850;52.922;6.256;2024-01-30T10:44:39;14.52;;;10.00;;
12467;SDS011;57850;52.922;6.256;2024-01-30T10:47:11;21.83;;;13.25;;
12467;SDS011;57850;52.922;6.256;2024-01-30T10:49:38;14.73;;;10.63;;
12467;SDS011;57850;52.922;6.256;2024-01-30T10:52:05;19.77;;;10.95;;
12467;SDS011;57850;52.922;6.256;2024-01-30T10:54:32;15.70;;;11.00;;
12467;SDS011;57850;52.922;6.256;2024-01-30T10:57:02;15.32;;;10.40;;
12467;SDS011;57850;52.922;6.256;2024-01-30T10:59:30;18.70;;;9.63;;
12467;SDS011;57850;52.922;6.256;2024-01-30T11:01:57;13.77;;;9.50;;
12467;SDS011;57850;52.922;6.256;2024-01-30T11:04:23;21.20;;;10.80;;
12467;SDS011;57850;52.922;6.256;2024-01-30T11:06:51;16.90;;;10.85;;
12467;SDS011;57850;52.922;6.256;2024-01-30T11:09:17;17.40;;;10.60;;
12467;SDS011;57850;52.922;6.256;2024-01-30T11:11:50;17.40;;;10.85;;
12467;SDS011;57850;52.922;6.256;2024-01-30T11:14:23;16.67;;;10.77;;
12467;SDS011;57850;52.922;6.256;2024-01-30T11:16:51;22.00;;;11.02;;
12467;SDS011;57850;52.922;6.256;2024-01-30T11:19:22;23.67;;;11.75;;
12467;SDS011;57850;52.922;6.256;2024-01-30T11:21:49;17.88;;;10.57;;
12467;SDS011;57850;52.922;6.256;2024-01-30T11:24:18;20.33;;;11.10;;
12467;SDS011;57850;52.922;6.256;2024-01-30T11:26:45;16.65;;;10.45;;
12467;SDS011;57850;52.922;6.256;2024-01-30T11:29:13;22.70;;;10.23;;
12467;SDS011;57850;52.922;6.256;2024-01-30T11:31:41;25.15;;;9.27;;
12467;SDS011;57850;52.922;6.256;2024-01-30T11:34:17;15.98;;;8.85;;
12467;SDS011;57850;52.922;6.256;2024-01-30T11:36:44;17.35;;;8.77;;
12467;SDS011;57850;52.922;6.256;2024-01-30T11:39:15;13.88;;;7.35;;
12467;SDS011;57850;52.922;6.256;2024-01-30T11:41:43;15.95;;;7.10;;
12467;SDS011;57850;52.922;6.256;2024-01-30T11:44:11;12.48;;;6.00;;
12467;SDS011;57850;52.922;6.256;2024-01-30T11:46:38;11.68;;;5.03;;
12467;SDS011;57850;52.922;6.256;2024-01-30T11:49:06;10.88;;;4.80;;
12467;SDS011;57850;52.922;6.256;2024-01-30T11:51:32;11.43;;;5.03;;
12467;SDS011;57850;52.922;6.256;2024-01-30T11:53:59;14.32;;;4.72;;
12467;SDS011;57850;52.922;6.256;2024-01-30T11:56:25;12.07;;;4.40;;
12467;SDS011;57850;52.922;6.256;2024-01-30T11:58:52;10.65;;;3.55;;
12467;SDS011;57850;52.922;6.256;2024-01-30T12:01:18;10.43;;;3.78;;
12467;SDS011;57850;52.922;6.256;2024-01-30T12:03:49;7.82;;;3.08;;
12467;SDS011;57850;52.922;6.256;2024-01-30T12:06:17;7.50;;;3.45;;
12467;SDS011;57850;52.922;6.256;2024-01-30T12:08:43;5.30;;;2.85;;
12467;SDS011;57850;52.922;6.256;2024-01-30T12:11:20;5.45;;;2.38;;
12467;SDS011;57850;52.922;6.256;2024-01-30T12:13:46;6.53;;;3.00;;
12467;SDS011;57850;52.922;6.256;2024-01-30T12:16:12;9.20;;;2.78;;
12467;SDS011;57850;52.922;6.256;2024-01-30T12:18:39;5.68;;;2.65;;
12467;SDS011;57850;52.922;6.256;2024-01-30T12:21:06;5.22;;;2.25;;
12467;SDS011;57850;52.922;6.256;2024-01-30T12:23:35;4.63;;;1.75;;
12467;SDS011;57850;52.922;6.256;2024-01-30T12:26:01;7.10;;;2.90;;
12467;SDS011;57850;52.922;6.256;2024-01-30T12:28:28;4.10;;;2.20;;
12467;SDS011;57850;52.922;6.256;2024-01-30T12:30:55;3.38;;;1.80;;
12467;SDS011;57850;52.922;6.256;2024-01-30T12:33:22;8.82;;;2.50;;
12467;SDS011;57850;52.922;6.256;2024-01-30T12:35:51;4.63;;;1.35;;
12467;SDS011;57850;52.922;6.256;2024-01-30T12:38:18;3.83;;;2.00;;
12467;SDS011;57850;52.922;6.256;2024-01-30T12:40:46;3.70;;;1.55;;
12467;SDS011;57850;52.922;6.256;2024-01-30T12:43:13;2.42;;;1.50;;
12467;SDS011;57850;52.922;6.256;2024-01-30T12:45:40;2.08;;;1.45;;
12467;SDS011;57850;52.922;6.256;2024-01-30T12:48:08;4.00;;;1.67;;
12467;SDS011;57850;52.922;6.256;2024-01-30T12:50:35;4.22;;;1.70;;
12467;SDS011;57850;52.922;6.256;2024-01-30T12:53:01;7.40;;;1.70;;
12467;SDS011;57850;52.922;6.256;2024-01-30T12:55:27;2.33;;;1.30;;
12467;SDS011;57850;52.922;6.256;2024-01-30T12:57:56;1.73;;;1.15;;
12467;SDS011;57850;52.922;6.256;2024-01-30T13:00:23;2.72;;;1.00;;
12467;SDS011;57850;52.922;6.256;2024-01-30T13:02:49;2.58;;;1.17;;
12467;SDS011;57850;52.922;6.256;2024-01-30T13:05:16;3.53;;;1.30;;
12467;SDS011;57850;52.922;6.256;2024-01-30T13:07:42;3.50;;;1.50;;
12467;SDS011;57850;52.922;6.256;2024-01-30T13:10:09;4.85;;;1.30;;
12467;SDS011;57850;52.922;6.256;2024-01-30T13:12:36;2.13;;;1.13;;
12467;SDS011;57850;52.922;6.256;2024-01-30T13:15:05;3.13;;;1.35;;
12467;SDS011;57850;52.922;6.256;2024-01-30T13:17:32;2.78;;;1.20;;
12467;SDS011;57850;52.922;6.256;2024-01-30T13:19:58;2.13;;;1.20;;
12467;SDS011;57850;52.922;6.256;2024-01-30T13:22:24;4.28;;;1.50;;
12467;SDS011;57850;52.922;6.256;2024-01-30T13:24:51;3.45;;;1.50;;
12467;SDS011;57850;52.922;6.256;2024-01-30T13:27:17;4.10;;;1.75;;
12467;SDS011;57850;52.922;6.256;2024-01-30T13:29:44;2.72;;;1.70;;
12467;SDS011;57850;52.922;6.256;2024-01-30T13:32:11;4.30;;;1.33;;
12467;SDS011;57850;52.922;6.256;2024-01-30T13:34:38;5.38;;;1.80;;
12467;SDS011;57850;52.922;6.256;2024-01-30T13:37:05;2.78;;;1.55;;
12467;SDS011;57850;52.922;6.256;2024-01-30T13:39:31;3.30;;;1.25;;
12467;SDS011;57850;52.922;6.256;2024-01-30T13:41:58;2.67;;;1.48;;
12467;SDS011;57850;52.922;6.256;2024-01-30T13:44:24;2.95;;;1.95;;
12467;SDS011;57850;52.922;6.256;2024-01-30T13:46:51;3.08;;;1.70;;
12467;SDS011;57850;52.922;6.256;2024-01-30T13:49:18;3.45;;;1.73;;
12467;SDS011;57850;52.922;6.256;2024-01-30T13:51:45;3.22;;;1.48;;
12467;SDS011;57850;52.922;6.256;2024-01-30T13:54:11;2.53;;;1.48;;
12467;SDS011;57850;52.922;6.256;2024-01-30T13:56:38;3.33;;;1.60;;
12467;SDS011;57850;52.922;6.256;2024-01-30T13:59:04;3.33;;;1.45;;
12467;SDS011;57850;52.922;6.256;2024-01-30T14:01:31;3.15;;;1.70;;
12467;SDS011;57850;52.922;6.256;2024-01-30T14:03:57;3.05;;;2.00;;
12467;SDS011;57850;52.922;6.256;2024-01-30T14:06:25;4.07;;;2.25;;
12467;SDS011;57850;52.922;6.256;2024-01-30T14:08:52;4.30;;;2.00;;
12467;SDS011;57850;52.922;6.256;2024-01-30T14:11:18;4.20;;;2.08;;
12467;SDS011;57850;52.922;6.256;2024-01-30T14:13:45;3.65;;;2.25;;
12467;SDS011;57850;52.922;6.256;2024-01-30T14:16:11;5.55;;;2.47;;
12467;SDS011;57850;52.922;6.256;2024-01-30T14:18:38;4.60;;;2.55;;
12467;SDS011;57850;52.922;6.256;2024-01-30T14:21:05;4.15;;;2.53;;
12467;SDS011;57850;52.922;6.256;2024-01-30T14:23:34;6.10;;;2.83;;
12467;SDS011;57850;52.922;6.256;2024-01-30T14:26:00;3.38;;;2.47;;